sensor_id;sensor_type;location;lat;lon;timestamp;P1;durP1;ratioP1;P2;durP2;ratioP2
54679;SDS011;40578;53.178;5.846;2023-04-01T00:01:40;12.18;;;8.68;;
54679;SDS011;40578;53.178;5.846;2023-04-01T00:04:05;12.27;;;8.30;;
54679;SDS011;40578;53.178;5.846;2023-04-01T00:06:31;11.27;;;8.33;;
54679;SDS011;40578;53.178;5.846;2023-04-01T00:08:56;13.17;;;8.53;;
54679;SDS011;40578;53.178;5.846;2023-04-01T00:11:22;12.90;;;8.73;;
54679;SDS011;40578;53.178;5.846;2023-04-01T00:13:48;12.03;;;8.37;;
54679;SDS011;40578;53.178;5.846;2023-04-01T00:16:14;14.43;;;9.30;;
54679;SDS011;40578;53.178;5.846;2023-04-01T00:18:40;11.85;;;8.50;;
54679;SDS011;40578;53.178;5.846;2023-04-01T00:21:06;12.90;;;8.37;;
54679;SDS011;40578;53.178;5.846;2023-04-01T00:23:32;12.52;;;8.82;;
54679;SDS011;40578;53.178;5.846;2023-04-01T00:25:59;15.48;;;9.50;;
54679;SDS011;40578;53.178;5.846;2023-04-01T00:28:25;14.15;;;9.38;;
54679;SDS011;40578;53.178;5.846;2023-04-01T00:30:51;12.23;;;8.63;;
54679;SDS011;40578;53.178;5.846;2023-04-01T00:33:17;13.57;;;9.57;;
54679;SDS011;40578;53.178;5.846;2023-04-01T00:35:43;14.70;;;9.47;;
54679;SDS011;40578;53.178;5.846;2023-04-01T00:38:09;15.48;;;9.85;;
54679;SDS011;40578;53.178;5.846;2023-04-01T00:40:40;14.80;;;10.05;;
54679;SDS011;40578;53.178;5.846;2023-04-01T00:43:16;14.02;;;9.48;;
54679;SDS011;40578;53.178;5.846;2023-04-01T00:45:44;14.80;;;10.50;;
54679;SDS011;40578;53.178;5.846;2023-04-01T00:50:44;15.30;;;10.05;;
54679;SDS011;40578;53.178;5.846;2023-04-01T00:53:14;13.98;;;9.65;;
54679;SDS011;40578;53.178;5.846;2023-04-01T00:55:42;14.00;;;9.77;;
54679;SDS011;40578;53.178;5.846;2023-04-01T00:58:14;13.52;;;9.57;;
54679;SDS011;40578;53.178;5.846;2023-04-01T01:00:41;14.32;;;8.98;;
54679;SDS011;40578;53.178;5.846;2023-04-01T01:03:08;13.73;;;9.73;;
54679;SDS011;40578;53.178;5.846;2023-04-01T01:06:16;14.80;;;9.33;;
54679;SDS011;40578;53.178;5.846;2023-04-01T01:11:40;13.32;;;9.13;;
54679;SDS011;40578;53.178;5.846;2023-04-01T01:14:27;16.40;;;10.05;;
54679;SDS011;40578;53.178;5.846;2023-04-01T01:17:26;14.15;;;9.75;;
54679;SDS011;40578;53.178;5.846;2023-04-01T01:25:12;14.20;;;9.97;;
54679;SDS011;40578;53.178;5.846;2023-04-01T01:36:21;16.05;;;10.60;;
54679;SDS011;40578;53.178;5.846;2023-04-01T01:38:50;12.98;;;9.52;;
54679;SDS011;40578;53.178;5.846;2023-04-01T01:41:16;14.45;;;10.60;;
54679;SDS011;40578;53.178;5.846;2023-04-01T01:43:46;14.75;;;9.57;;
54679;SDS011;40578;53.178;5.846;2023-04-01T01:46:16;14.40;;;9.20;;
54679;SDS011;40578;53.178;5.846;2023-04-01T01:48:46;15.48;;;10.63;;
54679;SDS011;40578;53.178;5.846;2023-04-01T01:51:13;16.88;;;10.18;;
54679;SDS011;40578;53.178;5.846;2023-04-01T01:53:39;16.88;;;10.20;;
54679;SDS011;40578;53.178;5.846;2023-04-01T01:56:05;14.67;;;10.07;;
54679;SDS011;40578;53.178;5.846;2023-04-01T01:58:35;15.85;;;10.00;;
54679;SDS011;40578;53.178;5.846;2023-04-01T02:01:25;13.98;;;8.82;;
54679;SDS011;40578;53.178;5.846;2023-04-01T02:03:53;16.38;;;10.57;;
54679;SDS011;40578;53.178;5.846;2023-04-01T02:06:21;14.27;;;9.90;;
54679;SDS011;40578;53.178;5.846;2023-04-01T02:11:15;15.63;;;10.47;;
54679;SDS011;40578;53.178;5.846;2023-04-01T02:16:40;15.13;;;9.60;;
54679;SDS011;40578;53.178;5.846;2023-04-01T02:19:13;13.40;;;9.50;;
54679;SDS011;40578;53.178;5.846;2023-04-01T02:21:40;18.00;;;10.75;;
54679;SDS011;40578;53.178;5.846;2023-04-01T02:24:10;15.93;;;10.25;;
54679;SDS011;40578;53.178;5.846;2023-04-01T02:26:39;17.20;;;10.60;;
54679;SDS011;40578;53.178;5.846;2023-04-01T02:29:06;18.48;;;10.10;;
54679;SDS011;40578;53.178;5.846;2023-04-01T02:31:34;15.80;;;10.35;;
54679;SDS011;40578;53.178;5.846;2023-04-01T02:34:00;14.95;;;10.15;;
54679;SDS011;40578;53.178;5.846;2023-04-01T02:36:27;16.98;;;10.30;;
54679;SDS011;40578;53.178;5.846;2023-04-01T02:38:54;16.25;;;11.07;;
54679;SDS011;40578;53.178;5.846;2023-04-01T02:41:21;18.58;;;10.68;;
54679;SDS011;40578;53.178;5.846;2023-04-01T02:43:47;16.60;;;10.47;;
54679;SDS011;40578;53.178;5.846;2023-04-01T02:46:13;15.98;;;10.45;;
54679;SDS011;40578;53.178;5.846;2023-04-01T02:48:39;17.93;;;10.70;;
54679;SDS011;40578;53.178;5.846;2023-04-01T02:51:05;18.27;;;10.87;;
54679;SDS011;40578;53.178;5.846;2023-04-01T02:53:30;17.30;;;10.30;;
54679;SDS011;40578;53.178;5.846;2023-04-01T02:55:56;15.23;;;9.67;;
54679;SDS011;40578;53.178;5.846;2023-04-01T02:58:21;14.90;;;10.13;;
54679;SDS011;40578;53.178;5.846;2023-04-01T03:00:47;16.30;;;10.47;;
54679;SDS011;40578;53.178;5.846;2023-04-01T03:03:13;18.07;;;10.50;;
54679;SDS011;40578;53.178;5.846;2023-04-01T03:05:38;17.53;;;10.30;;
54679;SDS011;40578;53.178;5.846;2023-04-01T03:08:04;16.13;;;10.13;;
54679;SDS011;40578;53.178;5.846;2023-04-01T03:10:31;16.42;;;10.30;;
54679;SDS011;40578;53.178;5.846;2023-04-01T03:12:57;14.83;;;9.87;;
54679;SDS011;40578;53.178;5.846;2023-04-01T03:15:22;16.43;;;10.37;;
54679;SDS011;40578;53.178;5.846;2023-04-01T03:17:48;15.50;;;10.63;;
54679;SDS011;40578;53.178;5.846;2023-04-01T03:20:15;18.03;;;10.87;;
54679;SDS011;40578;53.178;5.846;2023-04-01T03:22:41;16.98;;;10.40;;
54679;SDS011;40578;53.178;5.846;2023-04-01T03:25:06;19.03;;;10.83;;
54679;SDS011;40578;53.178;5.846;2023-04-01T03:27:33;18.83;;;11.15;;
54679;SDS011;40578;53.178;5.846;2023-04-01T03:30:01;17.50;;;11.18;;
54679;SDS011;40578;53.178;5.846;2023-04-01T03:32:28;18.95;;;10.73;;
54679;SDS011;40578;53.178;5.846;2023-04-01T03:34:53;17.27;;;11.50;;
54679;SDS011;40578;53.178;5.846;2023-04-01T03:37:19;18.80;;;10.67;;
54679;SDS011;40578;53.178;5.846;2023-04-01T03:39:44;18.57;;;11.70;;
54679;SDS011;40578;53.178;5.846;2023-04-01T03:42:10;16.80;;;10.60;;
54679;SDS011;40578;53.178;5.846;2023-04-01T03:44:36;18.20;;;12.05;;
54679;SDS011;40578;53.178;5.846;2023-04-01T03:47:02;17.83;;;11.33;;
54679;SDS011;40578;53.178;5.846;2023-04-01T03:49:28;18.30;;;11.47;;
54679;SDS011;40578;53.178;5.846;2023-04-01T03:51:53;18.13;;;11.53;;
54679;SDS011;40578;53.178;5.846;2023-04-01T03:54:19;17.27;;;10.50;;
54679;SDS011;40578;53.178;5.846;2023-04-01T03:56:45;17.80;;;11.60;;
54679;SDS011;40578;53.178;5.846;2023-04-01T03:59:11;18.80;;;10.95;;
54679;SDS011;40578;53.178;5.846;2023-04-01T04:01:37;17.42;;;10.93;;
54679;SDS011;40578;53.178;5.846;2023-04-01T04:04:03;18.70;;;11.03;;
54679;SDS011;40578;53.178;5.846;2023-04-01T04:06:29;18.52;;;11.75;;
54679;SDS011;40578;53.178;5.846;2023-04-01T04:08:55;20.02;;;11.80;;
54679;SDS011;40578;53.178;5.846;2023-04-01T04:11:21;17.67;;;11.37;;
54679;SDS011;40578;53.178;5.846;2023-04-01T04:13:47;18.90;;;11.40;;
54679;SDS011;40578;53.178;5.846;2023-04-01T04:16:15;18.17;;;11.50;;
54679;SDS011;40578;53.178;5.846;2023-04-01T04:18:41;22.15;;;11.57;;
54679;SDS011;40578;53.178;5.846;2023-04-01T04:21:10;17.43;;;11.30;;
54679;SDS011;40578;53.178;5.846;2023-04-01T04:23:37;18.75;;;11.07;;
54679;SDS011;40578;53.178;5.846;2023-04-01T04:26:04;19.93;;;11.67;;
54679;SDS011;40578;53.178;5.846;2023-04-01T04:28:31;21.38;;;12.20;;
54679;SDS011;40578;53.178;5.846;2023-04-01T04:30:57;18.83;;;12.20;;
54679;SDS011;40578;53.178;5.846;2023-04-01T04:33:23;22.53;;;12.63;;
54679;SDS011;40578;53.178;5.846;2023-04-01T04:35:50;23.02;;;13.05;;
54679;SDS011;40578;53.178;5.846;2023-04-01T04:38:16;20.30;;;12.63;;
54679;SDS011;40578;53.178;5.846;2023-04-01T04:40:42;20.90;;;13.02;;
54679;SDS011;40578;53.178;5.846;2023-04-01T04:43:11;19.23;;;12.00;;
54679;SDS011;40578;53.178;5.846;2023-04-01T04:45:39;23.17;;;13.73;;
54679;SDS011;40578;53.178;5.846;2023-04-01T04:48:05;23.83;;;12.87;;
54679;SDS011;40578;53.178;5.846;2023-04-01T04:50:32;21.25;;;13.05;;
54679;SDS011;40578;53.178;5.846;2023-04-01T04:52:57;21.83;;;13.43;;
54679;SDS011;40578;53.178;5.846;2023-04-01T04:55:23;22.03;;;12.20;;
54679;SDS011;40578;53.178;5.846;2023-04-01T04:57:49;23.23;;;13.50;;
54679;SDS011;40578;53.178;5.846;2023-04-01T05:00:14;21.73;;;12.40;;
54679;SDS011;40578;53.178;5.846;2023-04-01T05:02:40;23.57;;;13.63;;
54679;SDS011;40578;53.178;5.846;2023-04-01T05:05:06;25.67;;;14.17;;
54679;SDS011;40578;53.178;5.846;2023-04-01T05:07:32;24.38;;;14.02;;
54679;SDS011;40578;53.178;5.846;2023-04-01T05:09:58;26.55;;;14.35;;
54679;SDS011;40578;53.178;5.846;2023-04-01T05:12:24;24.00;;;14.80;;
54679;SDS011;40578;53.178;5.846;2023-04-01T05:14:50;24.03;;;13.63;;
54679;SDS011;40578;53.178;5.846;2023-04-01T05:17:15;24.30;;;14.17;;
54679;SDS011;40578;53.178;5.846;2023-04-01T05:19:41;25.13;;;14.90;;
54679;SDS011;40578;53.178;5.846;2023-04-01T05:22:06;25.43;;;14.70;;
54679;SDS011;40578;53.178;5.846;2023-04-01T05:24:32;27.73;;;16.20;;
54679;SDS011;40578;53.178;5.846;2023-04-01T05:26:58;27.65;;;15.43;;
54679;SDS011;40578;53.178;5.846;2023-04-01T05:29:25;25.80;;;15.55;;
54679;SDS011;40578;53.178;5.846;2023-04-01T05:31:51;29.00;;;15.85;;
54679;SDS011;40578;53.178;5.846;2023-04-01T05:34:17;28.03;;;15.50;;
54679;SDS011;40578;53.178;5.846;2023-04-01T05:36:43;26.47;;;15.30;;
54679;SDS011;40578;53.178;5.846;2023-04-01T05:39:10;26.42;;;14.73;;
54679;SDS011;40578;53.178;5.846;2023-04-01T05:41:36;29.47;;;15.97;;
54679;SDS011;40578;53.178;5.846;2023-04-01T05:44:02;29.30;;;16.63;;
54679;SDS011;40578;53.178;5.846;2023-04-01T05:46:28;28.52;;;14.80;;
54679;SDS011;40578;53.178;5.846;2023-04-01T05:48:54;23.83;;;13.33;;
54679;SDS011;40578;53.178;5.846;2023-04-01T05:51:20;23.60;;;14.37;;
54679;SDS011;40578;53.178;5.846;2023-04-01T05:53:47;29.08;;;16.27;;
54679;SDS011;40578;53.178;5.846;2023-04-01T05:56:13;24.77;;;14.73;;
54679;SDS011;40578;53.178;5.846;2023-04-01T05:58:39;28.60;;;15.80;;
54679;SDS011;40578;53.178;5.846;2023-04-01T06:01:08;26.95;;;14.85;;
54679;SDS011;40578;53.178;5.846;2023-04-01T06:03:36;25.10;;;16.17;;
54679;SDS011;40578;53.178;5.846;2023-04-01T06:06:02;27.43;;;16.23;;
54679;SDS011;40578;53.178;5.846;2023-04-01T06:08:29;26.10;;;15.93;;
54679;SDS011;40578;53.178;5.846;2023-04-01T06:13:57;25.40;;;15.40;;
54679;SDS011;40578;53.178;5.846;2023-04-01T06:16:35;24.88;;;14.90;;
54679;SDS011;40578;53.178;5.846;2023-04-01T06:22:08;24.70;;;15.02;;
54679;SDS011;40578;53.178;5.846;2023-04-01T06:55:17;20.02;;;12.20;;
54679;SDS011;40578;53.178;5.846;2023-04-01T06:57:52;18.95;;;11.57;;
54679;SDS011;40578;53.178;5.846;2023-04-01T07:00:25;20.35;;;12.45;;
54679;SDS011;40578;53.178;5.846;2023-04-01T07:02:59;21.45;;;12.55;;
54679;SDS011;40578;53.178;5.846;2023-04-01T07:05:38;20.85;;;13.20;;
54679;SDS011;40578;53.178;5.846;2023-04-01T07:08:06;20.38;;;12.35;;
54679;SDS011;40578;53.178;5.846;2023-04-01T07:13:15;21.20;;;13.18;;
54679;SDS011;40578;53.178;5.846;2023-04-01T07:15:54;24.13;;;13.38;;
54679;SDS011;40578;53.178;5.846;2023-04-01T07:18:56;21.27;;;13.25;;
54679;SDS011;40578;53.178;5.846;2023-04-01T07:21:28;24.30;;;14.13;;
54679;SDS011;40578;53.178;5.846;2023-04-01T07:24:02;25.25;;;15.07;;
54679;SDS011;40578;53.178;5.846;2023-04-01T07:26:31;26.50;;;15.73;;
54679;SDS011;40578;53.178;5.846;2023-04-01T07:28:57;25.63;;;15.18;;
54679;SDS011;40578;53.178;5.846;2023-04-01T07:34:21;27.08;;;15.63;;
54679;SDS011;40578;53.178;5.846;2023-04-01T07:36:49;24.98;;;15.40;;
54679;SDS011;40578;53.178;5.846;2023-04-01T07:51:26;22.73;;;13.57;;
54679;SDS011;40578;53.178;5.846;2023-04-01T07:56:16;25.35;;;14.25;;
54679;SDS011;40578;53.178;5.846;2023-04-01T07:58:54;24.42;;;14.23;;
54679;SDS011;40578;53.178;5.846;2023-04-01T08:01:33;28.55;;;16.00;;
54679;SDS011;40578;53.178;5.846;2023-04-01T08:07:09;31.25;;;15.20;;
54679;SDS011;40578;53.178;5.846;2023-04-01T08:09:46;40.05;;;16.35;;
54679;SDS011;40578;53.178;5.846;2023-04-01T08:15:08;30.35;;;16.92;;
54679;SDS011;40578;53.178;5.846;2023-04-01T08:20:47;28.73;;;13.50;;
54679;SDS011;40578;53.178;5.846;2023-04-01T08:23:17;23.55;;;13.25;;
54679;SDS011;40578;53.178;5.846;2023-04-01T08:28:28;19.33;;;12.15;;
54679;SDS011;40578;53.178;5.846;2023-04-01T08:31:06;17.50;;;10.18;;
54679;SDS011;40578;53.178;5.846;2023-04-01T08:33:38;17.08;;;10.40;;
54679;SDS011;40578;53.178;5.846;2023-04-01T08:36:40;15.27;;;8.82;;
54679;SDS011;40578;53.178;5.846;2023-04-01T08:39:12;16.75;;;8.88;;
54679;SDS011;40578;53.178;5.846;2023-04-01T08:50:54;13.95;;;7.05;;
54679;SDS011;40578;53.178;5.846;2023-04-01T08:56:30;11.95;;;6.38;;
54679;SDS011;40578;53.178;5.846;2023-04-01T09:04:47;10.77;;;6.20;;
54679;SDS011;40578;53.178;5.846;2023-04-01T09:16:26;10.57;;;5.88;;
54679;SDS011;40578;53.178;5.846;2023-04-01T09:19:28;11.05;;;5.93;;
54679;SDS011;40578;53.178;5.846;2023-04-01T09:22:22;10.10;;;7.22;;
54679;SDS011;40578;53.178;5.846;2023-04-01T09:25:22;9.10;;;5.53;;
54679;SDS011;40578;53.178;5.846;2023-04-01T09:28:09;9.15;;;5.80;;
54679;SDS011;40578;53.178;5.846;2023-04-01T09:42:53;6.03;;;3.55;;
54679;SDS011;40578;53.178;5.846;2023-04-01T09:45:52;6.38;;;3.35;;
54679;SDS011;40578;53.178;5.846;2023-04-01T10:10:36;6.95;;;4.05;;
54679;SDS011;40578;53.178;5.846;2023-04-01T10:13:20;7.30;;;4.50;;
54679;SDS011;40578;53.178;5.846;2023-04-01T10:18:56;7.75;;;4.20;;
54679;SDS011;40578;53.178;5.846;2023-04-01T10:33:17;8.48;;;4.50;;
54679;SDS011;40578;53.178;5.846;2023-04-01T10:35:51;6.75;;;3.42;;
54679;SDS011;40578;53.178;5.846;2023-04-01T10:55:19;9.45;;;4.45;;
54679;SDS011;40578;53.178;5.846;2023-04-01T11:10:57;8.23;;;4.93;;
54679;SDS011;40578;53.178;5.846;2023-04-01T11:28:14;6.40;;;3.67;;
54679;SDS011;40578;53.178;5.846;2023-04-01T11:34:01;6.60;;;3.92;;
54679;SDS011;40578;53.178;5.846;2023-04-01T11:39:42;5.40;;;3.58;;
54679;SDS011;40578;53.178;5.846;2023-04-01T11:50:32;5.55;;;3.67;;
54679;SDS011;40578;53.178;5.846;2023-04-01T12:01:24;5.93;;;3.70;;
54679;SDS011;40578;53.178;5.846;2023-04-01T12:09:40;6.95;;;3.65;;
54679;SDS011;40578;53.178;5.846;2023-04-01T12:20:39;6.45;;;3.63;;
54679;SDS011;40578;53.178;5.846;2023-04-01T12:31:53;5.50;;;3.40;;
54679;SDS011;40578;53.178;5.846;2023-04-01T12:34:41;6.72;;;2.88;;
54679;SDS011;40578;53.178;5.846;2023-04-01T12:51:32;5.07;;;2.70;;
54679;SDS011;40578;53.178;5.846;2023-04-01T12:54:36;4.60;;;3.35;;
54679;SDS011;40578;53.178;5.846;2023-04-01T12:57:45;5.82;;;2.42;;
54679;SDS011;40578;53.178;5.846;2023-04-01T13:03:38;3.25;;;2.30;;
54679;SDS011;40578;53.178;5.846;2023-04-01T13:16:33;5.78;;;2.40;;
54679;SDS011;40578;53.178;5.846;2023-04-01T13:22:11;4.50;;;3.00;;
54679;SDS011;40578;53.178;5.846;2023-04-01T13:27:38;5.63;;;3.30;;
54679;SDS011;40578;53.178;5.846;2023-04-01T13:36:16;5.00;;;2.30;;
54679;SDS011;40578;53.178;5.846;2023-04-01T13:42:16;5.32;;;2.63;;
54679;SDS011;40578;53.178;5.846;2023-04-01T13:45:13;4.93;;;2.80;;
54679;SDS011;40578;53.178;5.846;2023-04-01T13:50:25;3.83;;;2.50;;
54679;SDS011;40578;53.178;5.846;2023-04-01T13:55:45;6.18;;;2.70;;
54679;SDS011;40578;53.178;5.846;2023-04-01T14:09:39;4.93;;;3.00;;
54679;SDS011;40578;53.178;5.846;2023-04-01T14:49:15;3.13;;;2.03;;
54679;SDS011;40578;53.178;5.846;2023-04-01T14:51:57;3.83;;;2.33;;
54679;SDS011;40578;53.178;5.846;2023-04-01T14:54:36;4.00;;;2.40;;
54679;SDS011;40578;53.178;5.846;2023-04-01T14:57:38;4.50;;;2.58;;
54679;SDS011;40578;53.178;5.846;2023-04-01T15:02:57;6.72;;;2.72;;
54679;SDS011;40578;53.178;5.846;2023-04-01T15:19:31;5.68;;;3.45;;
54679;SDS011;40578;53.178;5.846;2023-04-01T15:40:49;9.10;;;4.18;;
54679;SDS011;40578;53.178;5.846;2023-04-01T15:43:36;6.97;;;4.28;;
54679;SDS011;40578;53.178;5.846;2023-04-01T15:46:16;6.80;;;3.95;;
54679;SDS011;40578;53.178;5.846;2023-04-01T15:57:27;6.10;;;3.97;;
54679;SDS011;40578;53.178;5.846;2023-04-01T16:09:06;10.32;;;5.13;;
54679;SDS011;40578;53.178;5.846;2023-04-01T16:11:47;6.15;;;4.32;;
54679;SDS011;40578;53.178;5.846;2023-04-01T16:19:59;8.45;;;5.20;;
54679;SDS011;40578;53.178;5.846;2023-04-01T16:22:58;8.13;;;4.78;;
54679;SDS011;40578;53.178;5.846;2023-04-01T16:25:51;8.60;;;5.38;;
54679;SDS011;40578;53.178;5.846;2023-04-01T16:28:34;10.02;;;6.13;;
54679;SDS011;40578;53.178;5.846;2023-04-01T16:31:14;9.18;;;5.18;;
54679;SDS011;40578;53.178;5.846;2023-04-01T16:33:51;8.50;;;5.10;;
54679;SDS011;40578;53.178;5.846;2023-04-01T16:39:33;11.00;;;5.07;;
54679;SDS011;40578;53.178;5.846;2023-04-01T16:42:22;11.82;;;6.30;;
54679;SDS011;40578;53.178;5.846;2023-04-01T16:47:33;11.60;;;5.57;;
54679;SDS011;40578;53.178;5.846;2023-04-01T16:55:34;15.25;;;6.72;;
54679;SDS011;40578;53.178;5.846;2023-04-01T16:58:00;12.98;;;5.95;;
54679;SDS011;40578;53.178;5.846;2023-04-01T17:00:48;11.90;;;6.63;;
54679;SDS011;40578;53.178;5.846;2023-04-01T17:03:26;13.27;;;6.35;;
54679;SDS011;40578;53.178;5.846;2023-04-01T17:05:56;9.60;;;5.38;;
54679;SDS011;40578;53.178;5.846;2023-04-01T17:14:34;13.18;;;6.53;;
54679;SDS011;40578;53.178;5.846;2023-04-01T17:17:23;11.55;;;7.32;;
54679;SDS011;40578;53.178;5.846;2023-04-01T17:22:53;10.43;;;6.38;;
54679;SDS011;40578;53.178;5.846;2023-04-01T17:28:20;8.00;;;4.90;;
54679;SDS011;40578;53.178;5.846;2023-04-01T17:31:13;10.80;;;6.47;;
54679;SDS011;40578;53.178;5.846;2023-04-01T17:33:54;14.50;;;7.53;;
54679;SDS011;40578;53.178;5.846;2023-04-01T17:56:34;15.35;;;7.57;;
54679;SDS011;40578;53.178;5.846;2023-04-01T18:01:42;11.57;;;6.38;;
54679;SDS011;40578;53.178;5.846;2023-04-01T18:16:18;11.43;;;7.50;;
54679;SDS011;40578;53.178;5.846;2023-04-01T18:18:37;13.68;;;8.05;;
54679;SDS011;40578;53.178;5.846;2023-04-01T18:21:30;13.02;;;8.52;;
54679;SDS011;40578;53.178;5.846;2023-04-01T18:52:19;15.55;;;7.43;;
54679;SDS011;40578;53.178;5.846;2023-04-01T19:05:38;12.10;;;8.25;;
54679;SDS011;40578;53.178;5.846;2023-04-01T19:08:17;13.60;;;7.43;;
54679;SDS011;40578;53.178;5.846;2023-04-01T19:19:24;14.77;;;8.73;;
54679;SDS011;40578;53.178;5.846;2023-04-01T19:21:56;16.38;;;8.77;;
54679;SDS011;40578;53.178;5.846;2023-04-01T19:27:40;12.30;;;6.68;;
54679;SDS011;40578;53.178;5.846;2023-04-01T19:33:04;12.10;;;7.13;;
54679;SDS011;40578;53.178;5.846;2023-04-01T19:36:09;15.82;;;7.47;;
54679;SDS011;40578;53.178;5.846;2023-04-01T19:38:57;16.15;;;7.70;;
54679;SDS011;40578;53.178;5.846;2023-04-01T19:41:49;12.38;;;7.25;;
54679;SDS011;40578;53.178;5.846;2023-04-01T19:44:25;14.45;;;7.70;;
54679;SDS011;40578;53.178;5.846;2023-04-01T19:52:28;15.18;;;7.50;;
54679;SDS011;40578;53.178;5.846;2023-04-01T20:01:05;13.77;;;7.65;;
54679;SDS011;40578;53.178;5.846;2023-04-01T20:25:22;11.82;;;7.22;;
54679;SDS011;40578;53.178;5.846;2023-04-01T20:36:06;13.50;;;8.00;;
54679;SDS011;40578;53.178;5.846;2023-04-01T20:41:34;13.13;;;7.10;;
54679;SDS011;40578;53.178;5.846;2023-04-01T20:47:15;14.52;;;7.40;;
54679;SDS011;40578;53.178;5.846;2023-04-01T20:57:32;12.43;;;7.28;;
54679;SDS011;40578;53.178;5.846;2023-04-01T21:02:59;14.18;;;7.32;;
54679;SDS011;40578;53.178;5.846;2023-04-01T21:11:40;16.17;;;7.45;;
54679;SDS011;40578;53.178;5.846;2023-04-01T21:30:40;12.48;;;5.82;;
54679;SDS011;40578;53.178;5.846;2023-04-01T21:33:38;11.82;;;6.18;;
54679;SDS011;40578;53.178;5.846;2023-04-01T21:38:42;13.30;;;5.80;;
54679;SDS011;40578;53.178;5.846;2023-04-01T21:41:28;11.82;;;5.80;;
54679;SDS011;40578;53.178;5.846;2023-04-01T21:44:12;10.95;;;6.10;;
54679;SDS011;40578;53.178;5.846;2023-04-01T21:52:38;11.68;;;5.50;;
54679;SDS011;40578;53.178;5.846;2023-04-01T21:55:51;14.13;;;7.93;;
54679;SDS011;40578;53.178;5.846;2023-04-01T22:04:27;14.35;;;8.77;;
54679;SDS011;40578;53.178;5.846;2023-04-01T22:07:09;18.20;;;6.97;;
54679;SDS011;40578;53.178;5.846;2023-04-01T22:15:11;11.52;;;5.45;;
54679;SDS011;40578;53.178;5.846;2023-04-01T22:17:48;8.27;;;4.50;;
54679;SDS011;40578;53.178;5.846;2023-04-01T22:29:13;11.32;;;6.40;;
54679;SDS011;40578;53.178;5.846;2023-04-01T22:31:49;12.65;;;5.82;;
54679;SDS011;40578;53.178;5.846;2023-04-01T22:34:37;9.05;;;5.40;;
54679;SDS011;40578;53.178;5.846;2023-04-01T22:37:18;8.23;;;5.90;;
54679;SDS011;40578;53.178;5.846;2023-04-01T22:42:53;11.18;;;6.28;;
54679;SDS011;40578;53.178;5.846;2023-04-01T22:53:42;9.48;;;5.47;;
54679;SDS011;40578;53.178;5.846;2023-04-01T22:56:29;12.95;;;6.38;;
54679;SDS011;40578;53.178;5.846;2023-04-01T23:02:00;11.20;;;5.68;;
54679;SDS011;40578;53.178;5.846;2023-04-01T23:04:36;13.43;;;5.68;;
54679;SDS011;40578;53.178;5.846;2023-04-01T23:07:13;10.32;;;5.22;;
54679;SDS011;40578;53.178;5.846;2023-04-01T23:09:58;10.25;;;4.30;;
54679;SDS011;40578;53.178;5.846;2023-04-01T23:12:26;12.93;;;4.80;;
54679;SDS011;40578;53.178;5.846;2023-04-01T23:14:58;10.02;;;5.28;;
54679;SDS011;40578;53.178;5.846;2023-04-01T23:31:33;10.68;;;4.78;;
54679;SDS011;40578;53.178;5.846;2023-04-01T23:36:51;14.70;;;4.05;;
54679;SDS011;40578;53.178;5.846;2023-04-01T23:42:18;10.77;;;4.85;;
54679;SDS011;40578;53.178;5.846;2023-04-01T23:44:45;8.48;;;4.38;;
54679;SDS011;40578;53.178;5.846;2023-04-01T23:49:39;10.90;;;4.20;;
54679;SDS011;40578;53.178;5.846;2023-04-01T23:52:20;11.55;;;4.47;;
54679;SDS011;40578;53.178;5.846;2023-04-01T23:57:29;8.85;;;4.40;;
